Terminal Aerodrome Forecast
Issued by NWS Upton, NY

Home | Current Version | Previous Version | Text Only | Print | Product List | Glossary On
Versions: 1 2 3 4 5 6 7 8 9 10 11 12 13 14 15 16 17 18 19 20 21 22 23 24 25 26 27 28 29 30 31 32 33 34 35
000
FTUS41 KOKX 271146
TAFEWR
TAF
KEWR 271146Z 2712/2818 VRB03KT P6SM SCT025 SCT080 BKN250
     FM271600 27007KT P6SM BKN045
     FM271900 22007KT P6SM BKN045
     FM272100 16006KT P6SM BKN045
     FM280300 VRB03KT P6SM BKN200
     FM280600 VRB03KT P6SM BKN030
     FM281200 08004KT P6SM BKN015
     FM281600 10006KT P6SM BKN025=

USA.gov is the U.S. government's official web portal to all federal, state and local government web resources and services.